Alford, Indiana
Current Conditions -  °F | °C
As of 7:35 AM on Sunday 23 Nov 2014 (Local Time) from KDCY Reporting Station
Overcast Overcast  
Wind Chill: 12°   Ceiling: 7000
Heat Index: 12°   Visibility: 10mi
Dew Point:   Wind: 13mph
Humidity: 69%   Direction: 150°SSE
Pressure: 29.86"   Gusts: NA
Location:  38.4723°N, 87.3105°W
Report Text: KDCY 231335Z AUTO 15011KT 10SM SCT028 OVC070 12/06 A2986 RMK AO2 T01170061
Loading
Personal Weather Stations






























Interactive Weather Map New forecast layout! Learn more

10-Day Weather Forecast

Advertisements
Track Severe Weather on mobile